Time;durP1;ratioP1;P1;durP2;ratioP2;P2;SDS_P1;SDS_P2;PMS_P1;PMS_P2;Temp;Humidity;BMP_temperature;BMP_pressure;BME280_temperature;BME280_humidity;BME280_pressure;Samples;Min_cycle;Max_cycle;Signal;HPM_P1;HPM_P2
2021/01/12 05:03:04;;;;;;;5.10;1.60;;;4.40;99.90;;;;;;5052503;28;20298;-89
2021/01/12 05:05:31;;;;;;;10.30;4.17;;;4.40;99.90;;;;;;5054525;28;20186;-90
2021/01/12 05:08:02;;;;;;;4.70;1.40;;;4.30;99.90;;;;;;5036086;28;20180;-89
2021/01/12 05:10:37;;;;;;;7.10;0.70;;;4.40;99.90;;;;;;5034580;28;20183;-89
2021/01/12 05:13:12;;;;;;;2.77;0.73;;;4.40;99.90;;;;;;5017292;28;20176;-88
2021/01/12 05:15:38;;;;;;;4.00;0.83;;;4.30;99.90;;;;;;5017635;28;20188;-87
2021/01/12 05:18:15;;;;;;;7.97;1.17;;;4.30;99.90;;;;;;5017637;28;20180;-89
2021/01/12 05:20:48;;;;;;;4.67;1.00;;;4.20;99.90;;;;;;5018021;28;20222;-88
2021/01/12 05:23:22;;;;;;;4.30;0.70;;;4.20;99.90;;;;;;5018026;28;20610;-88
2021/01/12 05:25:49;;;;;;;5.20;0.87;;;4.20;99.90;;;;;;5024641;28;20200;-88
2021/01/12 05:28:21;;;;;;;8.10;1.13;;;4.20;99.90;;;;;;5016178;28;20657;-89
2021/01/12 05:30:47;;;;;;;3.90;0.80;;;4.20;99.90;;;;;;5006065;28;20204;-89
2021/01/12 05:33:21;;;;;;;3.17;0.60;;;4.10;99.90;;;;;;5023932;28;20184;-88
2021/01/12 05:35:49;;;;;;;4.93;1.30;;;4.10;99.90;;;;;;5023661;28;20188;-91
2021/01/12 05:38:29;;;;;;;7.03;0.90;;;4.10;99.90;;;;;;5007963;28;20191;-89
2021/01/12 05:41:01;;;;;;;4.37;0.70;;;4.10;99.90;;;;;;5022407;28;20208;-89
2021/01/12 05:43:38;;;;;;;3.37;0.63;;;4.00;99.90;;;;;;5021844;28;20176;-88
2021/01/12 05:46:12;;;;;;;3.43;0.67;;;3.90;99.90;;;;;;5024010;28;20180;-88
2021/01/12 05:48:42;;;;;;;5.63;0.77;;;3.90;99.90;;;;;;5022772;28;20176;-88
2021/01/12 05:51:09;;;;;;;4.73;0.80;;;3.90;99.90;;;;;;5022366;28;20208;-88
2021/01/12 05:54:01;;;;;;;2.83;0.73;;;3.90;99.90;;;;;;5022035;28;20195;-88
2021/01/12 05:56:27;;;;;;;7.03;1.37;;;3.90;99.90;;;;;;5021361;28;20615;-88
2021/01/12 05:58:54;;;;;;;5.13;1.00;;;3.90;99.90;;;;;;5020533;28;20634;-87
2021/01/12 06:01:44;;;;;;;4.77;0.80;;;3.80;99.90;;;;;;5020429;28;20217;-88
2021/01/12 06:04:11;;;;;;;5.70;1.50;;;3.80;99.90;;;;;;5016922;28;20207;-88
2021/01/12 06:06:38;;;;;;;10.00;2.83;;;3.60;99.90;;;;;;5021114;28;20211;-89
2021/01/12 06:09:08;;;;;;;10.20;2.30;;;3.60;99.90;;;;;;5020643;28;20177;-88
2021/01/12 06:11:36;;;;;;;6.03;1.80;;;3.60;99.90;;;;;;5021642;28;20615;-88
2021/01/12 06:14:09;;;;;;;4.83;1.60;;;3.60;99.90;;;;;;5024032;28;20220;-88
2021/01/12 06:16:37;;;;;;;3.20;0.87;;;3.60;99.90;;;;;;5020944;28;20238;-88
2021/01/12 06:19:07;;;;;;;4.83;1.03;;;3.50;99.90;;;;;;5005306;28;20227;-89
2021/01/12 06:21:49;;;;;;;6.23;1.00;;;3.50;99.90;;;;;;5001504;28;20220;-89
2021/01/12 06:24:24;;;;;;;6.37;1.10;;;3.50;99.90;;;;;;5000110;28;20239;-90
2021/01/12 06:26:58;;;;;;;6.27;1.13;;;3.50;99.90;;;;;;5012286;28;20184;-88
2021/01/12 06:29:27;;;;;;;2.37;0.73;;;3.50;99.90;;;;;;5018177;28;20583;-88
2021/01/12 06:31:56;;;;;;;3.77;0.90;;;3.40;99.90;;;;;;5019561;28;20203;-88
2021/01/12 06:34:22;;;;;;;5.50;0.87;;;3.40;99.90;;;;;;5020739;28;20189;-88
2021/01/12 06:36:53;;;;;;;3.37;0.90;;;3.30;99.90;;;;;;5025447;28;20191;-88
2021/01/12 06:39:41;;;;;;;5.73;0.80;;;3.40;99.90;;;;;;5027373;28;20199;-88
2021/01/12 06:42:23;;;;;;;6.90;1.80;;;3.30;99.90;;;;;;5011725;28;20227;-89
2021/01/12 06:45:32;;;;;;;7.87;1.77;;;3.30;99.90;;;;;;5014525;28;20192;-88
2021/01/12 06:51:08;;;;;;;6.03;1.10;;;3.20;99.90;;;;;;5017787;28;20228;-88
2021/01/12 06:53:53;;;;;;;2.87;1.10;;;3.10;99.90;;;;;;5013655;28;20188;-90
2021/01/12 06:56:45;;;;;;;4.30;0.97;;;3.10;99.90;;;;;;5017317;28;20275;-90
2021/01/12 06:59:55;;;;;;;5.67;1.50;;;3.00;99.90;;;;;;5040913;28;20255;-88
2021/01/12 07:02:54;;;;;;;6.90;1.73;;;3.00;99.90;;;;;;5024101;28;20207;-88
2021/01/12 07:05:25;;;;;;;9.53;2.70;;;3.00;99.90;;;;;;5025730;28;20187;-87
2021/01/12 07:08:06;;;;;;;11.50;4.47;;;2.90;99.90;;;;;;5021343;28;20183;-89
2021/01/12 07:18:22;;;;;;;9.67;3.00;;;2.80;99.90;;;;;;5581374;23;20247;-89
2021/01/12 07:20:50;;;;;;;6.97;2.63;;;2.80;99.90;;;;;;5070288;28;20237;-87
2021/01/12 07:23:43;;;;;;;6.53;2.03;;;2.70;99.90;;;;;;5054839;28;20184;-88
2021/01/12 07:26:14;;;;;;;5.90;1.90;;;2.70;99.90;;;;;;5071141;28;20180;-89
2021/01/12 07:28:46;;;;;;;6.17;1.57;;;2.70;99.90;;;;;;5058363;28;20202;-89
2021/01/12 07:31:14;;;;;;;7.23;1.60;;;2.70;99.90;;;;;;5055942;28;20207;-89
2021/01/12 07:33:41;;;;;;;6.07;1.67;;;2.70;99.90;;;;;;5052008;28;20634;-88
2021/01/12 07:36:07;;;;;;;7.70;1.93;;;2.70;99.90;;;;;;5075658;28;20179;-88
2021/01/12 07:38:35;;;;;;;4.47;1.50;;;2.60;99.90;;;;;;5055992;28;20183;-88
2021/01/12 07:41:03;;;;;;;4.10;0.83;;;2.60;99.90;;;;;;5060054;28;20231;-89
2021/01/12 07:43:38;;;;;;;5.13;0.80;;;2.60;99.90;;;;;;5050855;28;20234;-89
2021/01/12 07:46:03;;;;;;;6.83;0.70;;;2.50;99.90;;;;;;5059287;28;20212;-92
2021/01/12 07:48:29;;;;;;;4.53;0.90;;;2.50;99.90;;;;;;5054918;28;20199;-88
2021/01/12 07:51:00;;;;;;;3.63;0.53;;;2.50;99.90;;;;;;5049087;28;20203;-89
2021/01/12 07:53:25;;;;;;;5.47;1.07;;;2.40;99.90;;;;;;5056195;28;20194;-89
2021/01/12 07:55:52;;;;;;;3.57;0.90;;;2.30;99.90;;;;;;5050521;28;20187;-90
2021/01/12 07:58:18;;;;;;;3.70;0.90;;;2.30;99.90;;;;;;5059265;28;20175;-89
2021/01/12 08:00:53;;;;;;;4.20;0.80;;;2.40;99.90;;;;;;5056750;28;20676;-90
2021/01/12 08:03:28;;;;;;;7.27;1.23;;;2.40;99.90;;;;;;5047663;28;20227;-90
2021/01/12 08:06:01;;;;;;;8.87;1.77;;;2.40;99.90;;;;;;5060748;28;20175;-89
2021/01/12 08:08:27;;;;;;;11.40;3.87;;;2.30;99.90;;;;;;5060428;28;20175;-91
2021/01/12 08:10:52;;;;;;;8.47;2.90;;;2.30;99.90;;;;;;5059179;28;20562;-89
2021/01/12 08:14:07;;;;;;;6.23;2.27;;;2.30;99.90;;;;;;5054784;28;20175;-89
2021/01/12 08:16:33;;;;;;;6.77;2.20;;;2.30;99.90;;;;;;5055069;28;20179;-89
2021/01/12 08:18:59;;;;;;;7.73;2.43;;;2.30;99.90;;;;;;5059084;28;20559;-88
2021/01/12 08:21:54;;;;;;;8.47;1.93;;;2.30;99.90;;;;;;5056664;28;20211;-88
2021/01/12 08:24:25;;;;;;;9.13;2.60;;;2.30;99.90;;;;;;5057560;28;20180;-89
2021/01/12 08:26:51;;;;;;;4.80;1.40;;;2.30;99.90;;;;;;5049057;28;20714;-89
2021/01/12 08:29:25;;;;;;;4.67;1.40;;;2.30;99.90;;;;;;5053868;28;20180;-89
2021/01/12 08:32:07;;;;;;;10.57;1.70;;;2.30;99.90;;;;;;5050157;28;20283;-89
2021/01/12 08:34:43;;;;;;;5.43;1.50;;;2.30;99.90;;;;;;5057386;28;20180;-88
2021/01/12 08:37:11;;;;;;;4.57;1.13;;;2.30;99.90;;;;;;5056039;28;20179;-88
2021/01/12 08:39:37;;;;;;;5.10;1.70;;;2.30;99.90;;;;;;5049885;28;20271;-88
2021/01/12 08:42:06;;;;;;;10.83;1.93;;;2.30;99.90;;;;;;5054668;28;20308;-88
2021/01/12 08:44:41;;;;;;;5.67;1.97;;;2.30;99.90;;;;;;5056473;28;20184;-89
2021/01/12 08:47:08;;;;;;;7.90;2.43;;;2.30;99.90;;;;;;5056426;28;20175;-88
2021/01/12 08:49:35;;;;;;;7.00;2.20;;;2.30;99.90;;;;;;5055557;28;20225;-88
2021/01/12 08:52:02;;;;;;;9.03;2.43;;;2.40;99.90;;;;;;5055524;28;20672;-89
2021/01/12 08:54:28;;;;;;;7.10;2.00;;;2.40;99.90;;;;;;5052683;28;20652;-88
2021/01/12 08:57:13;;;;;;;9.03;2.50;;;2.40;99.90;;;;;;5048317;28;20221;-89
2021/01/12 08:59:39;;;;;;;11.13;3.43;;;2.40;99.90;;;;;;5060189;28;20194;-88
2021/01/12 09:02:04;;;;;;;10.07;4.17;;;2.40;99.90;;;;;;5059926;28;20294;-88
2021/01/12 09:04:30;;;;;;;12.17;3.47;;;2.40;99.90;;;;;;5055269;28;20181;-89
2021/01/12 09:07:06;;;;;;;7.43;2.70;;;2.40;99.90;;;;;;5049624;28;20380;-88
2021/01/12 09:09:32;;;;;;;8.00;2.73;;;2.40;99.90;;;;;;5059638;28;20186;-90
2021/01/12 09:11:59;;;;;;;6.73;1.90;;;2.40;99.90;;;;;;5057320;28;20700;-89
2021/01/12 09:14:44;;;;;;;7.70;2.00;;;2.40;99.90;;;;;;5057314;28;20191;-89
2021/01/12 09:17:14;;;;;;;5.20;2.20;;;2.40;99.90;;;;;;5057507;28;20184;-87
2021/01/12 09:19:40;;;;;;;9.13;3.00;;;2.50;99.90;;;;;;5059241;28;20199;-88
2021/01/12 09:22:16;;;;;;;9.03;2.27;;;2.50;99.90;;;;;;5059232;28;20214;-88
2021/01/12 09:24:54;;;;;;;6.77;1.60;;;2.50;99.90;;;;;;5058826;28;20186;-88
2021/01/12 09:27:22;;;;;;;6.63;1.77;;;2.50;99.90;;;;;;5058858;28;20183;-88
2021/01/12 09:29:48;;;;;;;4.53;1.33;;;2.60;99.90;;;;;;5057325;28;20274;-89
2021/01/12 09:32:34;;;;;;;4.90;1.30;;;2.60;99.90;;;;;;5058794;28;20610;-88
2021/01/12 09:35:03;;;;;;;3.73;1.20;;;2.70;99.90;;;;;;5060230;28;20679;-88
2021/01/12 09:37:28;;;;;;;7.13;1.43;;;2.70;99.90;;;;;;5059529;28;20188;-88
2021/01/12 09:39:58;;;;;;;5.97;1.60;;;2.70;99.90;;;;;;5060001;28;20188;-88
2021/01/12 09:42:25;;;;;;;9.07;2.03;;;2.70;99.90;;;;;;5058304;28;20273;-90
2021/01/12 09:44:51;;;;;;;6.37;1.87;;;2.80;99.90;;;;;;5058370;28;20186;-88
2021/01/12 09:47:18;;;;;;;5.27;1.70;;;2.80;99.90;;;;;;5049349;28;20183;-87
2021/01/12 09:49:43;;;;;;;6.87;1.37;;;2.80;99.90;;;;;;5059272;28;20180;-89
2021/01/12 09:52:09;;;;;;;6.83;2.33;;;2.80;99.90;;;;;;5060465;28;20311;-88
2021/01/12 09:54:35;;;;;;;7.97;2.50;;;2.80;99.90;;;;;;5060920;28;20187;-89
2021/01/12 09:57:02;;;;;;;4.80;1.63;;;2.80;99.90;;;;;;5060052;28;20187;-88
2021/01/12 09:59:28;;;;;;;3.87;1.00;;;2.90;99.90;;;;;;5054108;28;20213;-89
2021/01/12 10:02:00;;;;;;;4.17;1.20;;;2.90;99.90;;;;;;5058610;28;20290;-89
2021/01/12 10:04:39;;;;;;;10.17;4.07;;;2.90;99.90;;;;;;5059524;28;20190;-88
2021/01/12 10:07:04;;;;;;;12.83;5.70;;;3.10;99.90;;;;;;5053342;28;20179;-88
2021/01/12 11:14:56;;;;;;;10.00;2.40;;;3.80;99.90;;;;;;5786822;22;20221;-85
2021/01/12 11:17:21;;;;;;;6.07;1.70;;;3.90;99.90;;;;;;5110010;28;20182;-87
2021/01/12 11:19:47;;;;;;;6.50;2.03;;;4.00;99.90;;;;;;5100418;28;20203;-87
2021/01/12 11:22:13;;;;;;;5.27;1.30;;;4.10;99.90;;;;;;5109041;28;20306;-88
2021/01/12 11:24:39;;;;;;;5.40;1.43;;;4.20;99.90;;;;;;5099794;28;20204;-87
2021/01/12 11:27:05;;;;;;;4.50;1.00;;;4.30;99.90;;;;;;5088082;28;20255;-88
2021/01/12 11:29:33;;;;;;;4.40;0.80;;;4.40;99.90;;;;;;5084949;28;20202;-88
2021/01/12 11:31:59;;;;;;;6.03;0.90;;;4.40;99.90;;;;;;5092107;28;20211;-86
2021/01/12 11:34:25;;;;;;;6.90;1.20;;;4.40;99.90;;;;;;5087028;28;20204;-86
2021/01/12 11:37:00;;;;;;;8.00;1.50;;;4.50;99.90;;;;;;5088981;28;20206;-87
2021/01/12 11:39:26;;;;;;;6.37;0.70;;;4.60;99.90;;;;;;5087048;28;20177;-89
2021/01/12 11:41:54;;;;;;;7.60;1.07;;;4.80;99.90;;;;;;5089997;28;20208;-87
2021/01/12 11:44:21;;;;;;;4.47;1.10;;;4.90;99.90;;;;;;5099983;28;20190;-87
2021/01/12 11:46:47;;;;;;;6.90;1.40;;;5.00;99.90;;;;;;5095131;28;20187;-86
2021/01/12 11:49:36;;;;;;;6.17;1.10;;;5.00;99.90;;;;;;5084194;28;20198;-88
2021/01/12 11:52:07;;;;;;;5.10;0.87;;;5.10;99.90;;;;;;5095787;28;20250;-87
2021/01/12 11:54:36;;;;;;;2.50;0.40;;;4.80;99.90;;;;;;5092837;28;20188;-91
2021/01/12 11:57:05;;;;;;;0.97;0.20;;;4.00;99.90;;;;;;5084854;28;20265;-90
2021/01/12 11:59:30;;;;;;;1.60;0.20;;;3.90;99.90;;;;;;5085833;28;20186;-89
2021/01/12 12:01:57;;;;;;;2.10;0.40;;;3.60;99.90;;;;;;5085220;28;20199;-89
2021/01/12 12:04:24;;;;;;;4.37;0.87;;;3.60;99.90;;;;;;5088043;28;20209;-87
2021/01/12 12:06:54;;;;;;;2.40;0.80;;;3.60;99.90;;;;;;5092389;28;20178;-88
2021/01/12 12:09:21;;;;;;;2.83;0.63;;;3.70;99.90;;;;;;5089759;28;20187;-89
2021/01/12 12:11:47;;;;;;;5.37;0.97;;;3.60;99.90;;;;;;5086127;28;20194;-87
2021/01/12 12:14:13;;;;;;;5.67;1.10;;;3.60;99.90;;;;;;5086168;28;20193;-88
2021/01/12 12:16:42;;;;;;;2.77;0.53;;;3.60;99.90;;;;;;5090512;28;20166;-87
2021/01/12 12:19:08;;;;;;;4.87;0.63;;;3.60;99.90;;;;;;5090616;28;20175;-87
2021/01/12 12:21:47;;;;;;;7.03;0.83;;;3.60;99.90;;;;;;5087906;28;20210;-89
2021/01/12 12:24:17;;;;;;;5.63;0.80;;;3.70;99.90;;;;;;5091472;28;20178;-89
2021/01/12 12:26:46;;;;;;;5.63;0.70;;;3.60;99.90;;;;;;5093038;28;20159;-89
2021/01/12 12:29:12;;;;;;;5.53;0.60;;;3.70;99.90;;;;;;5090741;28;20209;-91
2021/01/12 12:31:38;;;;;;;4.10;0.97;;;3.70;99.90;;;;;;5108544;28;20183;-87
2021/01/12 12:34:04;;;;;;;9.87;1.70;;;3.80;99.90;;;;;;5095260;28;20193;-86
2021/01/12 12:36:30;;;;;;;6.80;1.40;;;4.00;99.90;;;;;;5088759;28;20194;-88
2021/01/12 12:38:56;;;;;;;8.17;1.73;;;4.10;99.90;;;;;;5085499;28;20197;-89
2021/01/12 12:41:22;;;;;;;13.60;2.50;;;4.30;99.90;;;;;;5087957;28;20206;-90
2021/01/12 12:43:47;;;;;;;11.37;3.00;;;4.30;99.90;;;;;;5091650;28;20202;-89
2021/01/12 12:46:15;;;;;;;7.27;1.97;;;4.40;99.90;;;;;;5095479;28;20199;-87
2021/01/12 12:48:41;;;;;;;12.73;2.77;;;4.30;99.90;;;;;;5098200;28;20171;-87
2021/01/12 12:51:09;;;;;;;8.80;2.13;;;4.20;99.90;;;;;;5097847;28;20181;-87
2021/01/12 12:53:36;;;;;;;12.17;2.73;;;4.30;99.90;;;;;;5098435;28;20217;-86
2021/01/12 12:56:02;;;;;;;14.00;3.00;;;4.40;99.90;;;;;;5095165;28;20279;-88
2021/01/12 12:58:31;;;;;;;6.47;1.60;;;4.40;99.90;;;;;;5097940;28;20177;-89
2021/01/12 13:00:57;;;;;;;8.80;2.00;;;4.50;99.90;;;;;;5095937;28;20214;-89
2021/01/12 13:03:23;;;;;;;8.10;1.50;;;4.60;99.90;;;;;;5088897;28;20511;-87
2021/01/12 13:05:49;;;;;;;7.90;1.40;;;4.60;99.90;;;;;;5095443;28;20213;-89
2021/01/12 13:08:16;;;;;;;8.73;1.97;;;4.60;99.90;;;;;;5095983;28;20670;-87
2021/01/12 13:10:41;;;;;;;8.90;1.87;;;4.50;99.90;;;;;;5094220;28;20222;-91
2021/01/12 13:13:09;;;;;;;7.63;2.67;;;4.50;99.90;;;;;;5095611;28;20159;-86
2021/01/12 13:15:35;;;;;;;3.63;0.77;;;4.30;99.90;;;;;;5097910;28;20214;-89
2021/01/12 13:18:10;;;;;;;4.30;1.10;;;4.20;99.90;;;;;;5097368;28;20209;-86
2021/01/12 13:20:36;;;;;;;4.23;0.50;;;4.00;99.90;;;;;;5096474;28;20217;-88
2021/01/12 13:23:02;;;;;;;2.87;0.30;;;3.80;99.90;;;;;;5096860;28;20179;-88
2021/01/12 13:25:27;;;;;;;0.53;0.20;;;3.40;99.90;;;;;;5086458;28;20470;-89
2021/01/12 13:27:53;;;;;;;2.43;0.50;;;3.30;99.90;;;;;;5087782;28;20480;-86
2021/01/12 13:30:19;;;;;;;1.90;0.20;;;3.00;99.90;;;;;;5092169;28;20561;-90
2021/01/12 13:32:50;;;;;;;0.63;0.20;;;2.80;99.90;;;;;;5091432;28;20208;-90
2021/01/12 13:35:22;;;;;;;3.73;0.80;;;2.70;99.90;;;;;;5090291;28;20191;-90
2021/01/12 13:37:48;;;;;;;1.20;0.40;;;2.70;99.90;;;;;;5090039;28;20186;-89
2021/01/12 13:40:15;;;;;;;1.37;0.37;;;2.70;99.90;;;;;;5090946;28;20183;-88
2021/01/12 13:42:49;;;;;;;0.90;0.17;;;2.60;99.90;;;;;;5091060;28;20181;-90
2021/01/12 13:45:15;;;;;;;2.57;0.60;;;2.80;99.90;;;;;;5089833;28;20195;-90
2021/01/12 13:47:42;;;;;;;1.53;0.33;;;3.00;99.90;;;;;;5090950;28;20217;-90
2021/01/12 13:50:08;;;;;;;0.90;0.27;;;3.00;99.90;;;;;;5073582;28;20183;-90
2021/01/12 13:52:34;;;;;;;1.60;0.57;;;3.00;99.90;;;;;;5089348;28;20178;-90
2021/01/12 13:55:00;;;;;;;3.87;1.00;;;3.10;99.90;;;;;;5090449;28;20201;-90
2021/01/12 13:57:34;;;;;;;4.33;0.70;;;3.20;99.90;;;;;;5091211;28;20204;-88
2021/01/12 14:00:04;;;;;;;3.10;0.97;;;3.10;99.90;;;;;;5091563;28;20227;-90
2021/01/12 14:02:29;;;;;;;3.73;0.80;;;3.00;99.90;;;;;;5090230;28;20182;-90
2021/01/12 14:04:56;;;;;;;3.27;0.87;;;3.10;99.90;;;;;;5090175;28;20198;-88
2021/01/12 14:07:23;;;;;;;5.13;0.97;;;3.10;99.90;;;;;;5091320;28;20262;-89
2021/01/12 14:09:50;;;;;;;1.43;0.50;;;3.10;99.90;;;;;;5090689;28;20246;-87
2021/01/12 14:12:17;;;;;;;4.03;0.93;;;3.00;99.90;;;;;;5091521;28;20203;-88
2021/01/12 14:14:43;;;;;;;6.93;1.77;;;2.90;99.90;;;;;;5089535;28;20310;-87
2021/01/12 14:17:10;;;;;;;3.57;1.20;;;3.00;99.90;;;;;;5089290;28;20175;-88
2021/01/12 14:19:37;;;;;;;5.20;0.80;;;3.10;99.90;;;;;;5089883;28;20183;-88
2021/01/12 14:22:08;;;;;;;5.03;1.27;;;3.00;99.90;;;;;;5088817;28;20186;-88
2021/01/12 14:24:34;;;;;;;6.83;2.10;;;3.00;99.90;;;;;;5090556;28;20198;-89
2021/01/12 14:27:00;;;;;;;5.07;1.07;;;3.00;99.90;;;;;;5082464;28;20190;-89
2021/01/12 14:29:26;;;;;;;5.17;1.10;;;2.90;99.90;;;;;;5092084;28;20179;-89
2021/01/12 14:31:53;;;;;;;6.00;1.83;;;2.90;99.90;;;;;;5089062;28;20179;-90
2021/01/12 14:34:19;;;;;;;4.77;1.30;;;2.90;99.90;;;;;;5083157;28;20207;-87
2021/01/12 14:36:48;;;;;;;4.70;1.10;;;2.90;99.90;;;;;;5091498;28;20194;-89
2021/01/12 14:39:27;;;;;;;5.93;1.63;;;2.90;99.90;;;;;;5076400;28;20182;-89
2021/01/12 14:41:55;;;;;;;6.20;1.70;;;2.80;99.90;;;;;;5091764;28;20203;-85
2021/01/12 14:44:24;;;;;;;5.63;1.70;;;3.00;99.90;;;;;;5074729;28;20195;-90
2021/01/12 14:50:23;;;;;;;9.57;2.70;;;2.70;99.90;;;;;;5096440;28;20161;-91
2021/01/12 14:52:50;;;;;;;11.43;3.03;;;2.80;99.90;;;;;;5089515;28;20187;-90
2021/01/12 14:55:19;;;;;;;6.73;2.03;;;2.90;99.90;;;;;;5087719;28;20203;-89
2021/01/12 14:57:45;;;;;;;12.07;2.90;;;2.80;99.90;;;;;;5092868;28;20189;-90
2021/01/12 15:00:11;;;;;;;9.80;3.80;;;2.90;99.90;;;;;;5081442;28;20195;-85
2021/01/12 15:12:58;;;;;;;6.77;2.60;;;3.00;99.90;;;;;;5802569;22;20271;-86
2021/01/12 15:15:24;;;;;;;11.43;4.27;;;3.00;99.90;;;;;;5077133;28;20211;-88
2021/01/12 15:46:18;;;;;;;8.63;2.93;;;2.90;99.90;;;;;;5852275;22;20558;-87
2021/01/12 15:48:44;;;;;;;5.73;1.77;;;2.80;99.90;;;;;;5385456;22;20242;-88
2021/01/12 15:51:11;;;;;;;6.70;2.87;;;2.80;99.90;;;;;;5088356;28;20470;-89
2021/01/12 15:53:37;;;;;;;8.37;2.40;;;2.70;99.90;;;;;;5077160;28;20191;-91
2021/01/12 15:56:06;;;;;;;13.47;4.37;;;2.70;99.90;;;;;;5077043;28;20575;-87
2021/01/12 15:58:32;;;;;;;9.75;3.40;;;2.70;99.90;;;;;;5082068;28;20642;-88
2021/01/12 16:01:10;;;;;;;9.20;3.60;;;2.70;99.90;;;;;;5087224;28;20229;-89
2021/01/12 16:03:37;;;;;;;10.23;3.93;;;2.70;99.90;;;;;;5084305;28;20190;-89
2021/01/12 16:06:26;;;;;;;12.57;4.33;;;2.70;99.90;;;;;;5066456;28;20206;-89
2021/01/12 16:08:52;;;;;;;10.03;2.10;;;2.70;99.90;;;;;;5087745;28;20541;-91
2021/01/12 16:11:26;;;;;;;5.27;1.80;;;2.80;99.90;;;;;;5083202;28;20183;-87
2021/01/12 16:14:00;;;;;;;7.70;2.73;;;2.80;99.90;;;;;;5058409;28;20202;-89
2021/01/12 16:16:26;;;;;;;6.77;2.33;;;2.80;99.90;;;;;;5072372;28;20203;-87
2021/01/12 16:18:52;;;;;;;10.77;2.37;;;2.80;99.90;;;;;;5063305;28;20203;-89
2021/01/12 16:21:18;;;;;;;8.67;2.97;;;2.60;99.90;;;;;;5087282;28;20256;-90
2021/01/12 16:23:44;;;;;;;7.00;2.43;;;2.60;99.90;;;;;;5067556;28;20237;-90
2021/01/12 16:26:09;;;;;;;7.70;2.43;;;2.70;99.90;;;;;;5082551;28;20194;-88
2021/01/12 16:28:35;;;;;;;8.80;2.40;;;2.70;99.90;;;;;;5087324;28;20179;-88
2021/01/12 16:31:01;;;;;;;10.80;2.63;;;2.70;99.90;;;;;;5083113;28;20182;-89
2021/01/12 16:33:30;;;;;;;4.73;1.83;;;2.70;99.90;;;;;;5084600;28;20187;-86
2021/01/12 17:14:55;;;;;;;8.77;3.20;;;2.60;99.90;;;;;;6124917;22;20158;-90
2021/01/12 17:17:21;;;;;;;8.30;1.60;;;2.60;99.90;;;;;;5072518;28;20171;-88
2021/01/12 17:19:50;;;;;;;6.57;2.20;;;2.60;99.90;;;;;;5070910;28;20224;-87
2021/01/12 17:22:24;;;;;;;8.20;2.17;;;2.50;99.90;;;;;;5077892;28;20210;-88
2021/01/12 17:24:54;;;;;;;7.33;1.97;;;2.50;99.90;;;;;;5078167;28;20199;-89
2021/01/12 17:27:25;;;;;;;7.33;2.53;;;2.50;99.90;;;;;;5072453;28;20183;-89
2021/01/12 17:29:59;;;;;;;14.53;3.57;;;2.50;99.90;;;;;;5075537;28;20171;-89
2021/01/12 17:32:25;;;;;;;7.40;3.00;;;2.50;99.90;;;;;;5073874;28;20194;-89
2021/01/12 17:34:52;;;;;;;12.73;3.10;;;2.40;99.90;;;;;;5072921;28;20225;-87
2021/01/12 17:37:23;;;;;;;22.70;9.10;;;2.40;99.90;;;;;;5073708;28;20182;-88
2021/01/12 17:39:51;;;;;;;30.43;11.43;;;2.30;99.90;;;;;;5079620;28;20182;-89
2021/01/12 17:42:18;;;;;;;12.43;2.60;;;2.30;99.90;;;;;;5085511;28;20195;-89
2021/01/12 17:44:44;;;;;;;8.27;2.20;;;2.30;99.90;;;;;;5075902;28;20200;-88
2021/01/12 17:47:15;;;;;;;11.77;2.70;;;2.30;99.90;;;;;;5073250;28;20182;-88
2021/01/12 17:49:41;;;;;;;10.17;2.50;;;2.30;99.90;;;;;;5079105;28;20266;-90
2021/01/12 17:52:27;;;;;;;11.10;1.63;;;2.30;99.90;;;;;;5068708;28;20175;-89
2021/01/12 17:54:54;;;;;;;5.77;1.17;;;2.40;99.90;;;;;;5079506;28;20236;-90
2021/01/12 17:57:21;;;;;;;7.20;1.87;;;2.30;99.90;;;;;;5079691;28;20183;-88
2021/01/12 17:59:50;;;;;;;10.07;1.67;;;2.30;99.90;;;;;;5072394;28;20175;-89
2021/01/12 18:02:17;;;;;;;7.00;1.50;;;2.30;99.90;;;;;;5066647;28;20191;-88
2021/01/12 18:04:44;;;;;;;12.40;2.17;;;2.40;99.90;;;;;;5071698;28;20205;-90
2021/01/12 18:07:14;;;;;;;7.37;1.23;;;2.40;99.90;;;;;;5077307;28;20187;-89
2021/01/12 18:09:42;;;;;;;8.27;1.70;;;2.40;99.90;;;;;;5078813;28;20186;-89
2021/01/12 18:12:12;;;;;;;6.53;1.03;;;2.40;99.90;;;;;;5080615;28;20187;-89
2021/01/12 18:14:40;;;;;;;13.53;1.87;;;2.40;99.90;;;;;;5068345;28;20211;-91
2021/01/12 18:17:08;;;;;;;7.00;1.27;;;2.40;99.90;;;;;;5072544;28;20238;-89
2021/01/12 18:19:35;;;;;;;6.27;1.43;;;2.50;99.90;;;;;;5065685;28;20216;-88
2021/01/12 18:22:14;;;;;;;8.60;1.77;;;2.50;99.90;;;;;;5065069;28;20215;-87
2021/01/12 18:24:43;;;;;;;8.23;1.40;;;2.60;99.90;;;;;;5069321;28;20202;-87
2021/01/12 18:27:45;;;;;;;11.23;1.80;;;2.60;99.90;;;;;;5065825;28;20560;-88
2021/01/12 18:30:11;;;;;;;10.03;2.07;;;2.60;99.90;;;;;;5066264;28;20182;-87
2021/01/12 18:32:41;;;;;;;13.27;1.60;;;2.50;99.90;;;;;;5070777;28;20243;-87
2021/01/12 18:35:07;;;;;;;15.60;1.90;;;2.50;99.90;;;;;;5065386;28;20227;-87
2021/01/12 18:37:33;;;;;;;9.80;1.60;;;2.50;99.90;;;;;;5071571;28;20190;-88
2021/01/12 18:40:07;;;;;;;10.00;2.50;;;2.50;99.90;;;;;;5058594;28;20202;-88
2021/01/12 18:42:39;;;;;;;12.47;1.70;;;2.50;99.90;;;;;;5069933;28;20202;-88
2021/01/12 18:45:27;;;;;;;6.70;1.33;;;2.50;99.90;;;;;;5066503;28;20298;-87
2021/01/12 18:47:58;;;;;;;7.00;1.93;;;2.50;99.90;;;;;;5066569;28;20179;-88
2021/01/12 18:50:24;;;;;;;12.57;2.60;;;2.50;99.90;;;;;;5065095;28;20176;-86
2021/01/12 18:52:50;;;;;;;11.30;2.00;;;2.50;99.90;;;;;;5071893;28;20190;-88
2021/01/12 18:55:23;;;;;;;10.33;2.10;;;2.50;99.90;;;;;;5066618;28;20205;-88
2021/01/12 18:57:53;;;;;;;8.50;1.80;;;2.50;99.90;;;;;;5066612;28;20184;-87
2021/01/12 19:00:20;;;;;;;9.33;1.63;;;2.50;99.90;;;;;;5061893;28;20171;-87
2021/01/12 19:02:45;;;;;;;10.90;1.60;;;2.50;99.90;;;;;;5070094;28;20175;-88
2021/01/12 19:05:11;;;;;;;10.77;1.70;;;2.50;99.90;;;;;;5074207;28;20233;-88
2021/01/12 19:07:38;;;;;;;9.90;1.47;;;2.50;99.90;;;;;;5072658;28;20194;-88
2021/01/12 19:10:04;;;;;;;6.97;1.40;;;2.50;99.90;;;;;;5071616;28;20187;-88
2021/01/12 19:12:30;;;;;;;5.93;1.20;;;2.50;99.90;;;;;;5066487;28;20667;-87
2021/01/12 19:14:59;;;;;;;9.00;1.93;;;2.50;99.90;;;;;;5064037;28;20228;-87
2021/01/12 19:17:35;;;;;;;4.17;1.00;;;2.50;99.90;;;;;;5069367;28;20232;-88
2021/01/12 19:20:01;;;;;;;10.90;2.07;;;2.50;99.90;;;;;;5074072;28;20189;-89
2021/01/12 19:22:26;;;;;;;8.80;1.70;;;2.50;99.90;;;;;;5070514;28;20203;-87
2021/01/12 19:24:55;;;;;;;12.80;2.00;;;2.50;99.90;;;;;;5077852;28;20203;-88
2021/01/12 19:27:20;;;;;;;9.47;2.20;;;2.60;99.90;;;;;;5071923;28;20440;-89
2021/01/12 19:29:46;;;;;;;12.27;2.10;;;2.50;99.90;;;;;;5067046;28;20442;-89
2021/01/12 19:32:13;;;;;;;12.37;2.60;;;2.50;99.90;;;;;;5076197;28;20194;-88
2021/01/12 19:34:43;;;;;;;10.37;2.70;;;2.60;99.90;;;;;;5070229;28;20228;-89
2021/01/12 19:37:08;;;;;;;11.27;3.73;;;2.70;99.90;;;;;;5087821;28;20694;-88
2021/01/12 19:39:34;;;;;;;7.07;0.90;;;2.70;99.90;;;;;;5075797;28;20203;-88
2021/01/12 19:42:00;;;;;;;4.97;0.80;;;2.60;99.90;;;;;;5071957;28;20195;-87
2021/01/12 19:44:31;;;;;;;4.40;0.67;;;2.30;99.90;;;;;;5075192;28;20218;-88
2021/01/12 19:47:02;;;;;;;4.83;0.90;;;2.30;99.90;;;;;;5072510;28;20186;-88
2021/01/12 19:49:28;;;;;;;4.23;1.03;;;2.30;99.90;;;;;;5077602;28;20187;-88
2021/01/12 19:51:54;;;;;;;3.93;0.60;;;2.30;99.90;;;;;;5081732;28;20179;-90
2021/01/12 19:54:24;;;;;;;4.07;0.90;;;2.10;99.90;;;;;;5078806;28;20187;-87
2021/01/12 19:56:50;;;;;;;2.13;0.70;;;2.10;99.90;;;;;;5071213;28;20267;-88
2021/01/12 19:59:15;;;;;;;5.77;1.00;;;2.10;99.90;;;;;;5082324;28;20662;-88
2021/01/12 20:01:43;;;;;;;4.97;1.00;;;2.10;99.90;;;;;;5050794;28;20226;-88
2021/01/12 20:04:10;;;;;;;6.70;1.17;;;2.20;99.90;;;;;;5091181;28;20186;-87
2021/01/12 20:06:39;;;;;;;6.27;1.27;;;2.20;99.90;;;;;;5065620;28;20242;-88
2021/01/12 20:09:06;;;;;;;5.40;1.10;;;2.10;99.90;;;;;;5072555;28;20183;-88
2021/01/12 20:11:35;;;;;;;5.13;1.30;;;2.10;99.90;;;;;;5073467;28;20243;-89
2021/01/12 20:14:02;;;;;;;5.87;2.00;;;2.10;99.90;;;;;;5076122;28;20198;-89
2021/01/12 20:16:32;;;;;;;8.57;2.43;;;2.20;99.90;;;;;;5074288;28;20215;-88
2021/01/12 20:19:03;;;;;;;5.67;1.87;;;2.20;99.90;;;;;;5076942;28;20195;-88
2021/01/12 20:21:48;;;;;;;7.13;1.30;;;2.20;99.90;;;;;;5076428;28;20206;-90
2021/01/12 20:24:33;;;;;;;4.10;0.83;;;2.30;99.90;;;;;;5091312;28;20174;-86
2021/01/12 20:27:01;;;;;;;5.00;1.00;;;2.30;99.90;;;;;;5070174;28;20236;-88
2021/01/12 20:29:28;;;;;;;7.63;1.17;;;2.30;99.90;;;;;;5076839;28;20270;-87
2021/01/12 20:31:54;;;;;;;10.13;1.67;;;2.20;99.90;;;;;;5065100;28;20190;-87
2021/01/12 20:34:20;;;;;;;11.23;1.03;;;2.30;99.90;;;;;;5066144;28;20183;-87
2021/01/12 20:36:49;;;;;;;4.37;0.97;;;2.20;99.90;;;;;;5072446;28;20191;-88
2021/01/12 20:39:14;;;;;;;2.77;0.67;;;2.20;99.90;;;;;;5071549;28;20204;-87
2021/01/12 20:41:43;;;;;;;8.33;1.10;;;2.20;99.90;;;;;;5070025;28;20206;-87
2021/01/12 20:44:18;;;;;;;6.73;0.90;;;2.30;99.90;;;;;;5071461;28;20175;-89
2021/01/12 20:47:10;;;;;;;7.93;1.50;;;2.30;99.90;;;;;;5061722;28;20185;-87
2021/01/12 20:49:40;;;;;;;3.70;0.90;;;2.30;99.90;;;;;;5076505;28;20269;-87